sensor_id;sensor_type;location;lat;lon;timestamp;temperature;humidity
48988;DHT22;34799;51.440;-2.534;2023-07-20T00:00:11;16.80;99.90
48988;DHT22;34799;51.440;-2.534;2023-07-20T00:02:40;16.70;99.90
48988;DHT22;34799;51.440;-2.534;2023-07-20T00:05:07;16.70;99.90
48988;DHT22;34799;51.440;-2.534;2023-07-20T00:07:34;16.70;99.90
48988;DHT22;34799;51.440;-2.534;2023-07-20T00:10:01;16.60;99.90
48988;DHT22;34799;51.440;-2.534;2023-07-20T00:12:28;16.50;99.90
48988;DHT22;34799;51.440;-2.534;2023-07-20T00:14:55;16.40;99.90
48988;DHT22;34799;51.440;-2.534;2023-07-20T00:17:22;16.60;99.90
48988;DHT22;34799;51.440;-2.534;2023-07-20T00:19:49;16.50;99.90
48988;DHT22;34799;51.440;-2.534;2023-07-20T00:22:17;16.40;99.90
48988;DHT22;34799;51.440;-2.534;2023-07-20T00:24:44;16.30;99.90
48988;DHT22;34799;51.440;-2.534;2023-07-20T00:27:11;16.40;99.90
48988;DHT22;34799;51.440;-2.534;2023-07-20T00:29:38;16.20;99.90
48988;DHT22;34799;51.440;-2.534;2023-07-20T00:32:06;16.10;99.90
48988;DHT22;34799;51.440;-2.534;2023-07-20T00:34:33;16.00;99.90
48988;DHT22;34799;51.440;-2.534;2023-07-20T00:37:01;15.90;99.90
48988;DHT22;34799;51.440;-2.534;2023-07-20T00:39:28;15.90;99.90
48988;DHT22;34799;51.440;-2.534;2023-07-20T00:41:55;15.80;99.90
48988;DHT22;34799;51.440;-2.534;2023-07-20T00:44:24;15.80;99.90
48988;DHT22;34799;51.440;-2.534;2023-07-20T00:46:51;15.70;99.90
48988;DHT22;34799;51.440;-2.534;2023-07-20T00:49:18;15.70;99.90
48988;DHT22;34799;51.440;-2.534;2023-07-20T00:51:48;15.70;99.90
48988;DHT22;34799;51.440;-2.534;2023-07-20T00:54:16;15.60;99.90
48988;DHT22;34799;51.440;-2.534;2023-07-20T00:56:43;15.60;99.90
48988;DHT22;34799;51.440;-2.534;2023-07-20T00:59:13;15.70;99.90
48988;DHT22;34799;51.440;-2.534;2023-07-20T01:01:42;15.70;99.90
48988;DHT22;34799;51.440;-2.534;2023-07-20T01:04:09;15.70;99.90
48988;DHT22;34799;51.440;-2.534;2023-07-20T01:06:45;15.70;99.90
48988;DHT22;34799;51.440;-2.534;2023-07-20T01:09:19;15.70;99.90
48988;DHT22;34799;51.440;-2.534;2023-07-20T01:14:18;15.60;99.90
48988;DHT22;34799;51.440;-2.534;2023-07-20T01:16:45;15.60;99.90
48988;DHT22;34799;51.440;-2.534;2023-07-20T01:19:13;15.70;99.90
48988;DHT22;34799;51.440;-2.534;2023-07-20T01:27:57;13.30;99.90
48988;DHT22;34799;51.440;-2.534;2023-07-20T01:33:38;15.50;99.90
48988;DHT22;34799;51.440;-2.534;2023-07-20T01:36:07;15.40;99.90
48988;DHT22;34799;51.440;-2.534;2023-07-20T01:38:36;15.40;99.90
48988;DHT22;34799;51.440;-2.534;2023-07-20T01:41:03;15.10;99.90
48988;DHT22;34799;51.440;-2.534;2023-07-20T01:43:31;15.30;99.90
48988;DHT22;34799;51.440;-2.534;2023-07-20T01:45:58;15.20;99.90
48988;DHT22;34799;51.440;-2.534;2023-07-20T01:48:28;15.20;99.90
48988;DHT22;34799;51.440;-2.534;2023-07-20T01:50:55;15.20;99.90
48988;DHT22;34799;51.440;-2.534;2023-07-20T01:53:24;15.20;99.90
48988;DHT22;34799;51.440;-2.534;2023-07-20T01:55:55;15.20;99.90
48988;DHT22;34799;51.440;-2.534;2023-07-20T01:58:23;15.20;99.90
48988;DHT22;34799;51.440;-2.534;2023-07-20T02:00:51;15.20;99.90
48988;DHT22;34799;51.440;-2.534;2023-07-20T02:03:19;15.10;99.90
48988;DHT22;34799;51.440;-2.534;2023-07-20T02:05:50;15.10;99.90
48988;DHT22;34799;51.440;-2.534;2023-07-20T02:08:17;15.00;99.90
48988;DHT22;34799;51.440;-2.534;2023-07-20T02:10:47;15.00;99.90
48988;DHT22;34799;51.440;-2.534;2023-07-20T02:13:14;15.00;99.90
48988;DHT22;34799;51.440;-2.534;2023-07-20T02:15:42;15.00;99.90
48988;DHT22;34799;51.440;-2.534;2023-07-20T02:18:15;14.90;99.90
48988;DHT22;34799;51.440;-2.534;2023-07-20T02:20:43;14.90;99.90
48988;DHT22;34799;51.440;-2.534;2023-07-20T02:23:10;14.80;99.90
48988;DHT22;34799;51.440;-2.534;2023-07-20T02:25:38;14.80;99.90
48988;DHT22;34799;51.440;-2.534;2023-07-20T02:28:07;14.80;99.90
48988;DHT22;34799;51.440;-2.534;2023-07-20T02:30:38;14.80;99.90
48988;DHT22;34799;51.440;-2.534;2023-07-20T02:33:07;14.80;99.90
48988;DHT22;34799;51.440;-2.534;2023-07-20T02:35:36;14.80;99.90
48988;DHT22;34799;51.440;-2.534;2023-07-20T02:38:03;14.80;99.90
48988;DHT22;34799;51.440;-2.534;2023-07-20T02:40:31;14.80;99.90
48988;DHT22;34799;51.440;-2.534;2023-07-20T02:42:58;14.70;99.90
48988;DHT22;34799;51.440;-2.534;2023-07-20T02:45:25;14.70;99.90
48988;DHT22;34799;51.440;-2.534;2023-07-20T02:47:53;14.70;99.90
48988;DHT22;34799;51.440;-2.534;2023-07-20T02:50:20;14.70;99.90
48988;DHT22;34799;51.440;-2.534;2023-07-20T02:52:47;14.60;99.90
48988;DHT22;34799;51.440;-2.534;2023-07-20T02:55:15;14.60;99.90
48988;DHT22;34799;51.440;-2.534;2023-07-20T02:57:42;14.50;99.90
48988;DHT22;34799;51.440;-2.534;2023-07-20T03:00:10;14.50;99.90
48988;DHT22;34799;51.440;-2.534;2023-07-20T03:02:38;14.50;99.90
48988;DHT22;34799;51.440;-2.534;2023-07-20T03:05:05;14.50;99.90
48988;DHT22;34799;51.440;-2.534;2023-07-20T03:07:34;14.50;99.90
48988;DHT22;34799;51.440;-2.534;2023-07-20T03:10:01;14.40;99.90
48988;DHT22;34799;51.440;-2.534;2023-07-20T03:12:29;14.40;99.90
48988;DHT22;34799;51.440;-2.534;2023-07-20T03:14:57;14.30;99.90
48988;DHT22;34799;51.440;-2.534;2023-07-20T03:17:25;13.60;99.90
48988;DHT22;34799;51.440;-2.534;2023-07-20T03:19:52;14.30;99.90
48988;DHT22;34799;51.440;-2.534;2023-07-20T03:22:19;14.20;99.90
48988;DHT22;34799;51.440;-2.534;2023-07-20T03:24:51;14.10;99.90
48988;DHT22;34799;51.440;-2.534;2023-07-20T03:27:19;14.10;99.90
48988;DHT22;34799;51.440;-2.534;2023-07-20T03:29:47;14.00;99.90
48988;DHT22;34799;51.440;-2.534;2023-07-20T03:32:14;14.00;99.90
48988;DHT22;34799;51.440;-2.534;2023-07-20T03:34:41;14.00;99.90
48988;DHT22;34799;51.440;-2.534;2023-07-20T03:37:08;13.80;99.90
48988;DHT22;34799;51.440;-2.534;2023-07-20T03:39:35;13.80;99.90
48988;DHT22;34799;51.440;-2.534;2023-07-20T03:42:03;13.70;99.90
48988;DHT22;34799;51.440;-2.534;2023-07-20T03:44:33;13.70;99.90
48988;DHT22;34799;51.440;-2.534;2023-07-20T03:47:00;13.70;99.90
48988;DHT22;34799;51.440;-2.534;2023-07-20T03:49:27;13.70;99.90
48988;DHT22;34799;51.440;-2.534;2023-07-20T03:51:54;13.60;99.90
48988;DHT22;34799;51.440;-2.534;2023-07-20T03:54:22;13.70;99.90
48988;DHT22;34799;51.440;-2.534;2023-07-20T03:56:49;13.60;99.90
48988;DHT22;34799;51.440;-2.534;2023-07-20T03:59:16;13.70;99.90
48988;DHT22;34799;51.440;-2.534;2023-07-20T04:01:43;13.70;99.90
48988;DHT22;34799;51.440;-2.534;2023-07-20T04:04:11;13.60;99.90
48988;DHT22;34799;51.440;-2.534;2023-07-20T04:06:38;13.60;99.90
48988;DHT22;34799;51.440;-2.534;2023-07-20T04:09:05;13.60;99.90
48988;DHT22;34799;51.440;-2.534;2023-07-20T04:11:32;13.60;99.90
48988;DHT22;34799;51.440;-2.534;2023-07-20T04:13:59;13.60;99.90
48988;DHT22;34799;51.440;-2.534;2023-07-20T04:16:26;13.50;99.90
48988;DHT22;34799;51.440;-2.534;2023-07-20T04:18:57;13.60;99.90
48988;DHT22;34799;51.440;-2.534;2023-07-20T04:21:28;13.70;99.90
48988;DHT22;34799;51.440;-2.534;2023-07-20T04:23:56;12.90;99.90
48988;DHT22;34799;51.440;-2.534;2023-07-20T04:26:23;13.50;99.90
48988;DHT22;34799;51.440;-2.534;2023-07-20T04:28:51;13.50;99.90
48988;DHT22;34799;51.440;-2.534;2023-07-20T04:31:31;13.40;99.90
48988;DHT22;34799;51.440;-2.534;2023-07-20T04:34:02;13.40;99.90
48988;DHT22;34799;51.440;-2.534;2023-07-20T04:36:30;13.40;99.90
48988;DHT22;34799;51.440;-2.534;2023-07-20T04:38:57;13.40;99.90
48988;DHT22;34799;51.440;-2.534;2023-07-20T04:41:25;13.40;99.90
48988;DHT22;34799;51.440;-2.534;2023-07-20T04:43:55;13.40;99.90
48988;DHT22;34799;51.440;-2.534;2023-07-20T04:46:28;13.40;99.90
48988;DHT22;34799;51.440;-2.534;2023-07-20T04:48:57;13.30;99.90
48988;DHT22;34799;51.440;-2.534;2023-07-20T04:51:25;13.30;99.90
48988;DHT22;34799;51.440;-2.534;2023-07-20T04:53:54;13.30;99.90
48988;DHT22;34799;51.440;-2.534;2023-07-20T04:56:22;13.30;99.90
48988;DHT22;34799;51.440;-2.534;2023-07-20T04:58:55;13.90;99.90
48988;DHT22;34799;51.440;-2.534;2023-07-20T05:01:22;13.40;99.90
48988;DHT22;34799;51.440;-2.534;2023-07-20T05:03:49;13.40;99.90
48988;DHT22;34799;51.440;-2.534;2023-07-20T05:06:17;13.50;99.90
48988;DHT22;34799;51.440;-2.534;2023-07-20T05:08:45;13.40;99.90
48988;DHT22;34799;51.440;-2.534;2023-07-20T05:11:12;14.00;99.90
48988;DHT22;34799;51.440;-2.534;2023-07-20T05:13:40;13.40;99.90
48988;DHT22;34799;51.440;-2.534;2023-07-20T05:16:07;13.60;99.90
48988;DHT22;34799;51.440;-2.534;2023-07-20T05:18:35;13.40;99.90
48988;DHT22;34799;51.440;-2.534;2023-07-20T05:21:03;13.40;99.90
48988;DHT22;34799;51.440;-2.534;2023-07-20T05:23:30;13.40;99.90
48988;DHT22;34799;51.440;-2.534;2023-07-20T05:25:58;13.50;99.90
48988;DHT22;34799;51.440;-2.534;2023-07-20T05:28:26;13.50;99.90
48988;DHT22;34799;51.440;-2.534;2023-07-20T05:30:54;13.50;99.90
48988;DHT22;34799;51.440;-2.534;2023-07-20T05:33:21;13.50;99.90
48988;DHT22;34799;51.440;-2.534;2023-07-20T05:35:48;14.60;99.90
48988;DHT22;34799;51.440;-2.534;2023-07-20T05:38:15;13.40;99.90
48988;DHT22;34799;51.440;-2.534;2023-07-20T05:40:45;14.10;99.90
48988;DHT22;34799;51.440;-2.534;2023-07-20T05:43:15;13.50;99.90
48988;DHT22;34799;51.440;-2.534;2023-07-20T05:45:42;13.50;99.90
48988;DHT22;34799;51.440;-2.534;2023-07-20T05:48:10;13.50;99.90
48988;DHT22;34799;51.440;-2.534;2023-07-20T05:50:42;13.50;99.90
48988;DHT22;34799;51.440;-2.534;2023-07-20T05:53:10;14.20;99.90
48988;DHT22;34799;51.440;-2.534;2023-07-20T05:55:36;13.70;99.90
48988;DHT22;34799;51.440;-2.534;2023-07-20T05:58:04;13.80;99.90
48988;DHT22;34799;51.440;-2.534;2023-07-20T06:00:31;13.90;99.90
48988;DHT22;34799;51.440;-2.534;2023-07-20T06:02:58;14.00;99.90
48988;DHT22;34799;51.440;-2.534;2023-07-20T06:05:25;14.10;99.90
48988;DHT22;34799;51.440;-2.534;2023-07-20T06:07:55;14.20;99.90
48988;DHT22;34799;51.440;-2.534;2023-07-20T06:10:25;14.30;99.90
48988;DHT22;34799;51.440;-2.534;2023-07-20T06:12:52;14.40;99.90
48988;DHT22;34799;51.440;-2.534;2023-07-20T06:15:27;14.50;99.90
48988;DHT22;34799;51.440;-2.534;2023-07-20T06:17:55;14.60;99.90
48988;DHT22;34799;51.440;-2.534;2023-07-20T06:20:24;14.60;99.90
48988;DHT22;34799;51.440;-2.534;2023-07-20T06:22:52;14.60;99.90
48988;DHT22;34799;51.440;-2.534;2023-07-20T06:25:19;14.70;99.90
48988;DHT22;34799;51.440;-2.534;2023-07-20T06:27:49;14.90;99.90
48988;DHT22;34799;51.440;-2.534;2023-07-20T06:30:17;14.90;99.90
48988;DHT22;34799;51.440;-2.534;2023-07-20T06:32:45;15.00;99.90
48988;DHT22;34799;51.440;-2.534;2023-07-20T06:35:12;15.20;99.90
48988;DHT22;34799;51.440;-2.534;2023-07-20T06:37:39;15.30;99.90
48988;DHT22;34799;51.440;-2.534;2023-07-20T06:40:07;15.50;99.90
48988;DHT22;34799;51.440;-2.534;2023-07-20T06:42:39;15.60;99.90
48988;DHT22;34799;51.440;-2.534;2023-07-20T06:45:09;15.70;99.90
48988;DHT22;34799;51.440;-2.534;2023-07-20T06:47:39;15.80;99.90
48988;DHT22;34799;51.440;-2.534;2023-07-20T06:50:09;16.00;99.90
48988;DHT22;34799;51.440;-2.534;2023-07-20T06:52:36;16.10;99.90
48988;DHT22;34799;51.440;-2.534;2023-07-20T06:55:04;16.10;99.90
48988;DHT22;34799;51.440;-2.534;2023-07-20T06:57:32;16.30;99.90
48988;DHT22;34799;51.440;-2.534;2023-07-20T06:59:59;16.40;99.90
48988;DHT22;34799;51.440;-2.534;2023-07-20T07:02:26;16.40;99.90
48988;DHT22;34799;51.440;-2.534;2023-07-20T07:04:53;16.50;99.90
48988;DHT22;34799;51.440;-2.534;2023-07-20T07:07:24;16.50;99.90
48988;DHT22;34799;51.440;-2.534;2023-07-20T07:09:53;16.60;99.90
48988;DHT22;34799;51.440;-2.534;2023-07-20T07:12:20;18.40;99.90
48988;DHT22;34799;51.440;-2.534;2023-07-20T07:14:47;16.70;99.90
48988;DHT22;34799;51.440;-2.534;2023-07-20T07:17:14;16.60;99.90
48988;DHT22;34799;51.440;-2.534;2023-07-20T07:19:45;16.60;99.90
48988;DHT22;34799;51.440;-2.534;2023-07-20T07:22:14;16.50;99.90
48988;DHT22;34799;51.440;-2.534;2023-07-20T07:24:41;16.50;99.90
48988;DHT22;34799;51.440;-2.534;2023-07-20T07:27:08;16.60;99.90
48988;DHT22;34799;51.440;-2.534;2023-07-20T07:29:36;16.70;99.90
48988;DHT22;34799;51.440;-2.534;2023-07-20T07:32:03;16.70;99.90
48988;DHT22;34799;51.440;-2.534;2023-07-20T07:34:30;16.80;99.90
48988;DHT22;34799;51.440;-2.534;2023-07-20T07:37:01;16.90;99.90
48988;DHT22;34799;51.440;-2.534;2023-07-20T07:39:28;17.00;99.90
48988;DHT22;34799;51.440;-2.534;2023-07-20T07:42:00;17.00;99.90
48988;DHT22;34799;51.440;-2.534;2023-07-20T07:44:27;17.10;99.90
48988;DHT22;34799;51.440;-2.534;2023-07-20T07:46:55;17.10;99.90
48988;DHT22;34799;51.440;-2.534;2023-07-20T07:49:22;17.20;99.90
48988;DHT22;34799;51.440;-2.534;2023-07-20T07:51:50;17.30;99.90
48988;DHT22;34799;51.440;-2.534;2023-07-20T07:54:17;17.30;99.90
48988;DHT22;34799;51.440;-2.534;2023-07-20T07:56:44;17.30;99.90
48988;DHT22;34799;51.440;-2.534;2023-07-20T07:59:12;17.40;99.90
48988;DHT22;34799;51.440;-2.534;2023-07-20T08:01:39;17.40;99.90
48988;DHT22;34799;51.440;-2.534;2023-07-20T08:04:06;17.50;99.90
48988;DHT22;34799;51.440;-2.534;2023-07-20T08:06:34;17.60;99.90
48988;DHT22;34799;51.440;-2.534;2023-07-20T08:09:01;17.60;99.90
48988;DHT22;34799;51.440;-2.534;2023-07-20T08:11:28;17.70;99.90
48988;DHT22;34799;51.440;-2.534;2023-07-20T08:13:57;17.70;99.90
48988;DHT22;34799;51.440;-2.534;2023-07-20T08:16:24;17.70;99.90
48988;DHT22;34799;51.440;-2.534;2023-07-20T08:18:52;17.70;99.90
48988;DHT22;34799;51.440;-2.534;2023-07-20T08:21:19;17.80;99.90
48988;DHT22;34799;51.440;-2.534;2023-07-20T08:23:46;17.90;99.90
48988;DHT22;34799;51.440;-2.534;2023-07-20T08:26:14;18.00;99.90
48988;DHT22;34799;51.440;-2.534;2023-07-20T08:28:42;18.20;99.90
48988;DHT22;34799;51.440;-2.534;2023-07-20T08:31:09;18.20;99.90
48988;DHT22;34799;51.440;-2.534;2023-07-20T08:33:36;18.10;99.90
48988;DHT22;34799;51.440;-2.534;2023-07-20T08:36:03;18.00;99.90
48988;DHT22;34799;51.440;-2.534;2023-07-20T08:38:30;18.00;99.90
48988;DHT22;34799;51.440;-2.534;2023-07-20T08:40:57;18.00;99.90
48988;DHT22;34799;51.440;-2.534;2023-07-20T08:43:27;18.00;99.90
48988;DHT22;34799;51.440;-2.534;2023-07-20T08:45:55;18.00;99.90
48988;DHT22;34799;51.440;-2.534;2023-07-20T08:48:27;18.10;99.90
48988;DHT22;34799;51.440;-2.534;2023-07-20T08:50:55;18.20;99.90
48988;DHT22;34799;51.440;-2.534;2023-07-20T08:53:24;18.20;99.90
48988;DHT22;34799;51.440;-2.534;2023-07-20T08:55:51;18.30;99.90
48988;DHT22;34799;51.440;-2.534;2023-07-20T08:58:20;18.30;99.90
48988;DHT22;34799;51.440;-2.534;2023-07-20T09:00:47;18.50;99.90
48988;DHT22;34799;51.440;-2.534;2023-07-20T09:03:19;18.60;99.90
48988;DHT22;34799;51.440;-2.534;2023-07-20T09:05:46;18.60;99.90
48988;DHT22;34799;51.440;-2.534;2023-07-20T09:08:14;18.60;99.90
48988;DHT22;34799;51.440;-2.534;2023-07-20T09:10:41;18.60;99.90
48988;DHT22;34799;51.440;-2.534;2023-07-20T09:13:08;18.80;99.90
48988;DHT22;34799;51.440;-2.534;2023-07-20T09:15:36;18.80;99.90
48988;DHT22;34799;51.440;-2.534;2023-07-20T09:18:03;18.80;99.90
48988;DHT22;34799;51.440;-2.534;2023-07-20T09:20:32;18.80;99.90
48988;DHT22;34799;51.440;-2.534;2023-07-20T09:23:00;18.80;99.90
48988;DHT22;34799;51.440;-2.534;2023-07-20T09:25:33;18.90;99.90
48988;DHT22;34799;51.440;-2.534;2023-07-20T09:28:03;19.00;99.90
48988;DHT22;34799;51.440;-2.534;2023-07-20T09:30:31;19.10;99.90
48988;DHT22;34799;51.440;-2.534;2023-07-20T09:33:00;19.10;99.90
48988;DHT22;34799;51.440;-2.534;2023-07-20T09:35:27;19.10;99.90
48988;DHT22;34799;51.440;-2.534;2023-07-20T09:38:01;19.10;99.90
48988;DHT22;34799;51.440;-2.534;2023-07-20T09:40:37;19.20;99.90
48988;DHT22;34799;51.440;-2.534;2023-07-20T09:43:09;19.40;99.90
48988;DHT22;34799;51.440;-2.534;2023-07-20T09:45:42;19.50;99.90
48988;DHT22;34799;51.440;-2.534;2023-07-20T09:48:12;19.60;99.90
48988;DHT22;34799;51.440;-2.534;2023-07-20T09:50:50;19.80;99.90
48988;DHT22;34799;51.440;-2.534;2023-07-20T09:53:20;19.90;99.90
48988;DHT22;34799;51.440;-2.534;2023-07-20T09:55:48;19.90;99.90
48988;DHT22;34799;51.440;-2.534;2023-07-20T09:58:16;19.80;99.90
48988;DHT22;34799;51.440;-2.534;2023-07-20T10:00:44;19.90;99.90
48988;DHT22;34799;51.440;-2.534;2023-07-20T10:03:21;20.00;99.90
48988;DHT22;34799;51.440;-2.534;2023-07-20T10:06:02;20.10;99.90
48988;DHT22;34799;51.440;-2.534;2023-07-20T10:08:33;20.20;99.90
48988;DHT22;34799;51.440;-2.534;2023-07-20T10:11:08;20.20;99.90
48988;DHT22;34799;51.440;-2.534;2023-07-20T10:13:39;20.20;99.90
48988;DHT22;34799;51.440;-2.534;2023-07-20T10:16:10;20.00;99.90
48988;DHT22;34799;51.440;-2.534;2023-07-20T10:18:48;19.80;99.90
48988;DHT22;34799;51.440;-2.534;2023-07-20T10:21:19;19.90;99.90
48988;DHT22;34799;51.440;-2.534;2023-07-20T10:23:50;20.10;99.90
48988;DHT22;34799;51.440;-2.534;2023-07-20T10:26:19;20.10;99.90
48988;DHT22;34799;51.440;-2.534;2023-07-20T10:28:46;20.20;99.90
48988;DHT22;34799;51.440;-2.534;2023-07-20T10:31:14;20.30;99.90
48988;DHT22;34799;51.440;-2.534;2023-07-20T10:33:42;20.60;99.90
48988;DHT22;34799;51.440;-2.534;2023-07-20T10:36:10;20.30;99.90
48988;DHT22;34799;51.440;-2.534;2023-07-20T10:43:55;20.40;99.90
48988;DHT22;34799;51.440;-2.534;2023-07-20T10:49:11;20.60;99.90
48988;DHT22;34799;51.440;-2.534;2023-07-20T10:51:43;20.80;99.90
48988;DHT22;34799;51.440;-2.534;2023-07-20T10:56:44;20.90;99.90
48988;DHT22;34799;51.440;-2.534;2023-07-20T10:59:37;20.90;99.90
48988;DHT22;34799;51.440;-2.534;2023-07-20T11:02:07;21.10;99.90
48988;DHT22;34799;51.440;-2.534;2023-07-20T11:04:41;21.30;99.90
48988;DHT22;34799;51.440;-2.534;2023-07-20T11:07:09;21.50;99.90
48988;DHT22;34799;51.440;-2.534;2023-07-20T11:09:39;21.80;99.90
48988;DHT22;34799;51.440;-2.534;2023-07-20T11:12:18;21.90;99.90
48988;DHT22;34799;51.440;-2.534;2023-07-20T11:14:57;21.80;99.10
48988;DHT22;34799;51.440;-2.534;2023-07-20T11:17:31;21.60;99.10
48988;DHT22;34799;51.440;-2.534;2023-07-20T11:20:01;21.50;99.50
48988;DHT22;34799;51.440;-2.534;2023-07-20T11:22:31;21.20;99.60
48988;DHT22;34799;51.440;-2.534;2023-07-20T11:24:58;21.00;99.90
48988;DHT22;34799;51.440;-2.534;2023-07-20T11:27:25;21.00;99.90
48988;DHT22;34799;51.440;-2.534;2023-07-20T11:29:53;21.00;99.90
48988;DHT22;34799;51.440;-2.534;2023-07-20T11:32:22;21.00;99.90
48988;DHT22;34799;51.440;-2.534;2023-07-20T11:34:49;21.10;99.90
48988;DHT22;34799;51.440;-2.534;2023-07-20T11:37:17;21.30;99.70
48988;DHT22;34799;51.440;-2.534;2023-07-20T11:39:45;21.40;99.80
48988;DHT22;34799;51.440;-2.534;2023-07-20T11:42:12;21.50;99.90
48988;DHT22;34799;51.440;-2.534;2023-07-20T11:44:39;21.80;99.90
48988;DHT22;34799;51.440;-2.534;2023-07-20T11:47:11;22.00;99.70
48988;DHT22;34799;51.440;-2.534;2023-07-20T11:49:40;22.00;99.30
48988;DHT22;34799;51.440;-2.534;2023-07-20T11:52:10;21.70;99.50
48988;DHT22;34799;51.440;-2.534;2023-07-20T11:54:39;21.50;99.90
48988;DHT22;34799;51.440;-2.534;2023-07-20T11:57:21;21.40;99.90
48988;DHT22;34799;51.440;-2.534;2023-07-20T11:59:58;21.40;99.90
48988;DHT22;34799;51.440;-2.534;2023-07-20T12:02:32;21.60;99.90
48988;DHT22;34799;51.440;-2.534;2023-07-20T12:04:59;21.90;99.50
48988;DHT22;34799;51.440;-2.534;2023-07-20T12:07:28;22.30;99.00
48988;DHT22;34799;51.440;-2.534;2023-07-20T12:10:11;22.60;98.90
48988;DHT22;34799;51.440;-2.534;2023-07-20T12:12:40;22.50;98.70
48988;DHT22;34799;51.440;-2.534;2023-07-20T12:15:17;22.20;99.20
48988;DHT22;34799;51.440;-2.534;2023-07-20T12:17:45;22.10;99.30
48988;DHT22;34799;51.440;-2.534;2023-07-20T12:20:12;22.00;99.20
48988;DHT22;34799;51.440;-2.534;2023-07-20T12:22:40;21.90;99.40
48988;DHT22;34799;51.440;-2.534;2023-07-20T12:25:08;21.90;99.90
48988;DHT22;34799;51.440;-2.534;2023-07-20T12:27:36;22.20;99.80
48988;DHT22;34799;51.440;-2.534;2023-07-20T12:30:08;22.40;99.40
48988;DHT22;34799;51.440;-2.534;2023-07-20T12:32:35;22.60;98.80
48988;DHT22;34799;51.440;-2.534;2023-07-20T12:35:03;22.80;99.30
48988;DHT22;34799;51.440;-2.534;2023-07-20T12:37:30;23.10;99.30
48988;DHT22;34799;51.440;-2.534;2023-07-20T12:39:57;23.40;98.40
48988;DHT22;34799;51.440;-2.534;2023-07-20T12:42:24;23.40;97.70
48988;DHT22;34799;51.440;-2.534;2023-07-20T12:44:52;23.30;97.80
48988;DHT22;34799;51.440;-2.534;2023-07-20T12:47:19;23.20;97.20
48988;DHT22;34799;51.440;-2.534;2023-07-20T12:49:46;23.30;97.90
48988;DHT22;34799;51.440;-2.534;2023-07-20T12:52:14;23.40;97.10
48988;DHT22;34799;51.440;-2.534;2023-07-20T12:54:41;23.30;97.20
48988;DHT22;34799;51.440;-2.534;2023-07-20T12:57:08;23.00;97.10
48988;DHT22;34799;51.440;-2.534;2023-07-20T12:59:38;22.90;97.40
48988;DHT22;34799;51.440;-2.534;2023-07-20T13:02:05;22.70;96.90
48988;DHT22;34799;51.440;-2.534;2023-07-20T13:04:33;22.70;97.80
48988;DHT22;34799;51.440;-2.534;2023-07-20T13:07:00;22.40;98.40
48988;DHT22;34799;51.440;-2.534;2023-07-20T13:09:47;22.30;98.80
48988;DHT22;34799;51.440;-2.534;2023-07-20T13:12:14;22.20;99.00
48988;DHT22;34799;51.440;-2.534;2023-07-20T13:14:41;22.20;98.60
48988;DHT22;34799;51.440;-2.534;2023-07-20T13:17:08;22.20;98.80
48988;DHT22;34799;51.440;-2.534;2023-07-20T13:19:35;22.40;99.00
48988;DHT22;34799;51.440;-2.534;2023-07-20T13:22:02;22.40;98.90
48988;DHT22;34799;51.440;-2.534;2023-07-20T13:24:29;22.20;99.30
48988;DHT22;34799;51.440;-2.534;2023-07-20T13:26:56;22.00;99.70
48988;DHT22;34799;51.440;-2.534;2023-07-20T13:29:24;22.00;99.90
48988;DHT22;34799;51.440;-2.534;2023-07-20T13:31:52;22.00;99.90
48988;DHT22;34799;51.440;-2.534;2023-07-20T13:34:19;21.90;99.90
48988;DHT22;34799;51.440;-2.534;2023-07-20T13:36:46;22.00;99.90
48988;DHT22;34799;51.440;-2.534;2023-07-20T13:39:13;22.20;99.90
48988;DHT22;34799;51.440;-2.534;2023-07-20T13:41:40;22.20;99.90
48988;DHT22;34799;51.440;-2.534;2023-07-20T13:44:07;22.20;99.90
48988;DHT22;34799;51.440;-2.534;2023-07-20T13:46:34;22.00;99.90
48988;DHT22;34799;51.440;-2.534;2023-07-20T13:49:04;22.20;99.30
48988;DHT22;34799;51.440;-2.534;2023-07-20T13:51:37;22.20;99.20
48988;DHT22;34799;51.440;-2.534;2023-07-20T13:54:05;22.20;98.80
48988;DHT22;34799;51.440;-2.534;2023-07-20T13:56:35;22.50;99.10
48988;DHT22;34799;51.440;-2.534;2023-07-20T13:59:02;22.80;98.50
48988;DHT22;34799;51.440;-2.534;2023-07-20T14:01:29;23.20;98.10
48988;DHT22;34799;51.440;-2.534;2023-07-20T14:04:02;23.40;98.30
48988;DHT22;34799;51.440;-2.534;2023-07-20T14:06:31;23.60;98.40
48988;DHT22;34799;51.440;-2.534;2023-07-20T14:08:59;23.80;98.50
48988;DHT22;34799;51.440;-2.534;2023-07-20T14:11:27;23.90;98.00
48988;DHT22;34799;51.440;-2.534;2023-07-20T14:13:58;23.90;98.00
48988;DHT22;34799;51.440;-2.534;2023-07-20T14:16:26;23.90;97.90
48988;DHT22;34799;51.440;-2.534;2023-07-20T14:18:55;23.90;97.70
48988;DHT22;34799;51.440;-2.534;2023-07-20T14:21:22;23.80;98.00
48988;DHT22;34799;51.440;-2.534;2023-07-20T14:23:52;23.90;97.80
48988;DHT22;34799;51.440;-2.534;2023-07-20T14:26:22;24.10;98.00
48988;DHT22;34799;51.440;-2.534;2023-07-20T14:28:50;24.00;96.80
48988;DHT22;34799;51.440;-2.534;2023-07-20T14:31:18;23.90;98.00
48988;DHT22;34799;51.440;-2.534;2023-07-20T14:33:48;24.00;97.80
48988;DHT22;34799;51.440;-2.534;2023-07-20T14:36:15;24.00;97.70
48988;DHT22;34799;51.440;-2.534;2023-07-20T14:38:44;24.00;98.00
48988;DHT22;34799;51.440;-2.534;2023-07-20T14:41:11;23.90;97.60
48988;DHT22;34799;51.440;-2.534;2023-07-20T14:43:39;23.90;97.80
48988;DHT22;34799;51.440;-2.534;2023-07-20T14:46:06;23.80;98.30
48988;DHT22;34799;51.440;-2.534;2023-07-20T14:48:33;23.40;98.40
48988;DHT22;34799;51.440;-2.534;2023-07-20T14:51:00;23.30;99.10
48988;DHT22;34799;51.440;-2.534;2023-07-20T14:53:30;23.20;99.20
48988;DHT22;34799;51.440;-2.534;2023-07-20T14:56:02;23.30;98.60
48988;DHT22;34799;51.440;-2.534;2023-07-20T14:58:30;23.30;98.80
48988;DHT22;34799;51.440;-2.534;2023-07-20T15:00:59;23.20;99.10
48988;DHT22;34799;51.440;-2.534;2023-07-20T15:03:26;23.20;99.10
48988;DHT22;34799;51.440;-2.534;2023-07-20T15:05:53;23.10;98.70
48988;DHT22;34799;51.440;-2.534;2023-07-20T15:08:20;23.00;99.20
48988;DHT22;34799;51.440;-2.534;2023-07-20T15:10:48;22.70;99.50
48988;DHT22;34799;51.440;-2.534;2023-07-20T15:13:15;22.20;99.90
48988;DHT22;34799;51.440;-2.534;2023-07-20T15:15:42;21.70;99.90
48988;DHT22;34799;51.440;-2.534;2023-07-20T15:18:10;21.30;99.90
48988;DHT22;34799;51.440;-2.534;2023-07-20T15:20:37;20.70;99.90
48988;DHT22;34799;51.440;-2.534;2023-07-20T15:23:04;20.30;99.90
48988;DHT22;34799;51.440;-2.534;2023-07-20T15:25:31;20.00;99.90
48988;DHT22;34799;51.440;-2.534;2023-07-20T15:27:58;19.60;99.90
48988;DHT22;34799;51.440;-2.534;2023-07-20T15:30:27;19.40;99.90
48988;DHT22;34799;51.440;-2.534;2023-07-20T15:32:57;19.20;99.90
48988;DHT22;34799;51.440;-2.534;2023-07-20T15:35:28;18.90;99.90
48988;DHT22;34799;51.440;-2.534;2023-07-20T15:37:55;18.80;99.90
48988;DHT22;34799;51.440;-2.534;2023-07-20T15:40:23;18.70;99.90
48988;DHT22;34799;51.440;-2.534;2023-07-20T15:42:50;18.80;99.90
48988;DHT22;34799;51.440;-2.534;2023-07-20T15:45:20;18.80;99.90